Time,TemperatureF,DewpointF,PressureIn,WindDirection,WindDirectionDegrees,WindSpeedMPH,WindSpeedGustMPH,Humidity,HourlyPrecipIn,Conditions,Clouds,dailyrainin,SoftwareType,DateUTC
2013-06-20 00:04:00,60.9,57.4,26.70,SSE,158,0.0,0.0,88,0.00,,,0.00,WUHU216HW,2013-06-20 04:04:00,
2013-06-20 00:09:00,60.8,57.2,26.71,SSE,158,0.0,0.0,88,0.00,,,0.00,WUHU216HW,2013-06-20 04:09:00,
2013-06-20 00:14:00,60.8,57.2,26.70,SSE,158,0.0,0.0,88,0.00,,,0.00,WUHU216HW,2013-06-20 04:14:00,
2013-06-20 00:19:00,60.6,57.0,26.71,SSE,158,0.0,0.0,88,0.00,,,0.00,WUHU216HW,2013-06-20 04:19:00,
2013-06-20 00:24:00,60.6,57.0,26.70,SSE,158,0.0,0.0,88,0.00,,,0.00,WUHU216HW,2013-06-20 04:24:00,
2013-06-20 00:29:00,60.6,57.0,26.70,SSE,158,0.0,0.0,88,0.00,,,0.00,WUHU216HW,2013-06-20 04:29:00,
2013-06-20 00:34:00,60.6,56.7,26.70,SSE,158,0.0,0.0,87,0.00,,,0.00,WUHU216HW,2013-06-20 04:34:00,
2013-06-20 00:39:00,60.4,56.5,26.70,SSE,158,0.0,0.0,87,0.00,,,0.00,WUHU216HW,2013-06-20 04:39:00,
2013-06-20 00:44:00,60.0,56.2,26.70,SSE,158,0.0,0.0,87,0.00,,,0.00,WUHU216HW,2013-06-20 04:44:00,
2013-06-20 00:49:00,60.0,56.2,26.71,SSE,158,0.0,0.0,87,0.00,,,0.00,WUHU216HW,2013-06-20 04:49:00,
2013-06-20 00:54:00,60.0,56.5,26.71,SSE,158,0.0,0.0,88,0.00,,,0.00,WUHU216HW,2013-06-20 04:54:00,
2013-06-20 00:59:00,60.0,56.5,26.71,SSE,158,0.0,0.0,88,0.00,,,0.00,WUHU216HW,2013-06-20 04:59:00,
2013-06-20 01:04:00,60.0,56.5,26.71,SSE,158,0.0,0.0,88,0.00,,,0.00,WUHU216HW,2013-06-20 05:04:00,
2013-06-20 01:09:00,60.0,56.5,26.71,SSE,158,0.0,0.0,88,0.00,,,0.00,WUHU216HW,2013-06-20 05:09:00,
2013-06-20 01:14:00,60.0,56.5,26.71,SSE,158,0.0,0.0,88,0.00,,,0.00,WUHU216HW,2013-06-20 05:14:00,
2013-06-20 01:19:00,60.0,56.5,26.71,SSE,158,0.0,0.0,88,0.00,,,0.00,WUHU216HW,2013-06-20 05:19:00,
2013-06-20 01:24:00,60.0,56.5,26.71,SSE,158,0.0,0.0,88,0.00,,,0.00,WUHU216HW,2013-06-20 05:24:00,
2013-06-20 01:29:00,59.9,56.3,26.71,SSE,158,0.0,0.0,88,0.00,,,0.00,WUHU216HW,2013-06-20 05:29:00,
2013-06-20 01:34:00,59.7,56.1,26.70,SSE,158,0.0,0.0,88,0.00,,,0.00,WUHU216HW,2013-06-20 05:34:00,
2013-06-20 01:39:00,59.3,55.8,26.71,SSE,158,0.0,0.0,88,0.00,,,0.00,WUHU216HW,2013-06-20 05:39:00,
2013-06-20 01:44:00,59.3,55.8,26.70,SSE,158,0.0,0.0,88,0.00,,,0.00,WUHU216HW,2013-06-20 05:44:00,
2013-06-20 01:49:00,59.3,55.8,26.71,SSE,158,0.0,0.0,88,0.00,,,0.00,WUHU216HW,2013-06-20 05:49:00,
2013-06-20 01:54:00,59.3,55.8,26.71,SSE,158,0.0,0.0,88,0.00,,,0.00,WUHU216HW,2013-06-20 05:54:00,
2013-06-20 01:59:00,59.3,55.8,26.70,SSE,158,0.0,0.0,88,0.00,,,0.00,WUHU216HW,2013-06-20 05:59:00,
2013-06-20 02:04:00,59.3,55.8,26.70,SSE,158,0.0,0.0,88,0.00,,,0.00,WUHU216HW,2013-06-20 06:04:00,
2013-06-20 02:09:00,59.3,55.8,26.70,SSE,158,0.0,0.0,88,0.00,,,0.00,WUHU216HW,2013-06-20 06:09:00,
2013-06-20 02:14:00,59.3,55.8,26.70,SSE,158,0.0,0.0,88,0.00,,,0.00,WUHU216HW,2013-06-20 06:14:00,
2013-06-20 02:19:00,59.3,55.8,26.70,SSE,158,0.0,0.0,88,0.00,,,0.00,WUHU216HW,2013-06-20 06:19:00,
2013-06-20 02:24:00,59.3,55.8,26.70,SSE,158,0.0,0.0,88,0.00,,,0.00,WUHU216HW,2013-06-20 06:24:00,
2013-06-20 02:29:00,59.1,55.6,26.70,SSE,158,0.0,0.0,88,0.00,,,0.00,WUHU216HW,2013-06-20 06:29:00,
2013-06-20 02:34:00,59.1,55.6,26.69,SSE,158,0.0,0.0,88,0.00,,,0.00,WUHU216HW,2013-06-20 06:34:00,
2013-06-20 02:39:00,59.1,55.6,26.69,SSE,158,0.0,0.0,88,0.00,,,0.00,WUHU216HW,2013-06-20 06:39:00,
2013-06-20 02:44:00,59.1,55.6,26.69,SSE,158,0.0,0.0,88,0.00,,,0.00,WUHU216HW,2013-06-20 06:44:00,
2013-06-20 02:49:00,59.1,55.6,26.69,SSE,158,0.0,0.0,88,0.00,,,0.00,WUHU216HW,2013-06-20 06:49:00,
2013-06-20 02:54:00,58.8,55.2,26.69,SSE,158,0.0,0.0,88,0.00,,,0.00,WUHU216HW,2013-06-20 06:54:00,
2013-06-20 02:59:00,58.8,55.2,26.69,SSE,158,0.0,0.0,88,0.00,,,0.00,WUHU216HW,2013-06-20 06:59:00,
2013-06-20 03:04:00,58.8,55.2,26.69,SSE,158,0.0,0.0,88,0.00,,,0.00,WUHU216HW,2013-06-20 07:04:00,
2013-06-20 03:09:00,58.8,55.2,26.70,SSE,158,0.0,0.0,88,0.00,,,0.00,WUHU216HW,2013-06-20 07:09:00,
2013-06-20 03:14:00,58.8,55.2,26.70,SSE,158,0.0,0.0,88,0.00,,,0.00,WUHU216HW,2013-06-20 07:14:00,
2013-06-20 03:19:00,58.8,55.2,26.70,SSE,158,0.0,0.0,88,0.00,,,0.00,WUHU216HW,2013-06-20 07:19:00,
2013-06-20 03:24:00,58.8,55.2,26.70,SSE,158,0.0,0.0,88,0.00,,,0.00,WUHU216HW,2013-06-20 07:24:00,
2013-06-20 03:29:00,58.8,55.6,26.70,SSE,158,0.0,0.0,89,0.00,,,0.00,WUHU216HW,2013-06-20 07:29:00,
2013-06-20 03:34:00,58.8,55.6,26.70,SSE,158,0.0,0.0,89,0.00,,,0.00,WUHU216HW,2013-06-20 07:34:00,
2013-06-20 03:39:00,58.8,55.6,26.70,SSE,158,0.0,0.0,89,0.00,,,0.00,WUHU216HW,2013-06-20 07:39:00,
2013-06-20 03:44:00,58.8,55.6,26.70,SSE,158,0.0,0.0,89,0.00,,,0.00,WUHU216HW,2013-06-20 07:44:00,
2013-06-20 03:49:00,58.8,55.6,26.70,SSE,158,0.0,0.0,89,0.00,,,0.00,WUHU216HW,2013-06-20 07:49:00,
2013-06-20 03:55:00,58.8,55.6,26.69,SSE,158,0.0,0.0,89,0.00,,,0.00,WUHU216HW,2013-06-20 07:55:00,
2013-06-20 04:00:00,58.8,55.6,26.70,SSE,158,0.0,0.0,89,0.00,,,0.00,WUHU216HW,2013-06-20 08:00:00,
2013-06-20 04:05:00,58.8,55.6,26.70,SSE,158,0.0,0.0,89,0.00,,,0.00,WUHU216HW,2013-06-20 08:05:00,
2013-06-20 04:10:00,58.6,55.4,26.70,SSE,158,0.0,0.0,89,0.00,,,0.00,WUHU216HW,2013-06-20 08:10:00,
2013-06-20 04:15:00,58.6,55.4,26.70,SSE,158,0.0,0.0,89,0.00,,,0.00,WUHU216HW,2013-06-20 08:15:00,
2013-06-20 04:20:00,58.6,55.4,26.70,SSE,158,0.0,0.0,89,0.00,,,0.00,WUHU216HW,2013-06-20 08:20:00,
2013-06-20 04:25:00,58.6,55.4,26.70,SSE,158,0.0,0.0,89,0.00,,,0.00,WUHU216HW,2013-06-20 08:25:00,
2013-06-20 04:30:00,58.6,55.4,26.71,SSE,158,0.0,0.0,89,0.00,,,0.00,WUHU216HW,2013-06-20 08:30:00,
2013-06-20 04:35:00,58.6,55.4,26.71,SSE,158,0.0,0.0,89,0.00,,,0.00,WUHU216HW,2013-06-20 08:35:00,
2013-06-20 04:40:00,58.6,55.4,26.71,SSE,158,0.0,0.0,89,0.00,,,0.00,WUHU216HW,2013-06-20 08:40:00,
2013-06-20 04:45:00,58.8,55.6,26.71,SSE,158,0.0,0.0,89,0.00,,,0.00,WUHU216HW,2013-06-20 08:45:00,
2013-06-20 04:50:00,58.8,55.6,26.71,SSE,158,0.0,0.0,89,0.00,,,0.00,WUHU216HW,2013-06-20 08:50:00,
2013-06-20 04:55:00,58.8,55.6,26.72,SSE,158,0.0,0.0,89,0.00,,,0.00,WUHU216HW,2013-06-20 08:55:00,
2013-06-20 05:00:00,58.8,55.6,26.72,SSE,158,0.0,0.0,89,0.00,,,0.00,WUHU216HW,2013-06-20 09:00:00,
2013-06-20 05:05:00,58.8,55.6,26.72,SSE,158,0.0,0.0,89,0.00,,,0.00,WUHU216HW,2013-06-20 09:05:00,
2013-06-20 05:10:00,58.8,55.6,26.72,SSE,158,0.0,0.0,89,0.00,,,0.00,WUHU216HW,2013-06-20 09:10:00,
2013-06-20 05:15:00,58.8,55.6,26.73,SSE,158,0.0,0.0,89,0.00,,,0.00,WUHU216HW,2013-06-20 09:15:00,
2013-06-20 05:20:00,58.8,55.6,26.72,SSE,158,0.0,0.0,89,0.00,,,0.00,WUHU216HW,2013-06-20 09:20:00,
2013-06-20 05:25:00,58.8,55.6,26.72,SSE,158,0.0,0.0,89,0.00,,,0.00,WUHU216HW,2013-06-20 09:25:00,
2013-06-20 05:30:00,58.8,55.9,26.73,SSE,158,0.0,0.0,90,0.00,,,0.00,WUHU216HW,2013-06-20 09:30:00,
2013-06-20 05:35:00,58.8,55.9,26.73,SSE,158,0.0,0.0,90,0.00,,,0.00,WUHU216HW,2013-06-20 09:35:00,
2013-06-20 05:40:00,58.6,55.7,26.73,SSE,158,0.0,0.0,90,0.00,,,0.00,WUHU216HW,2013-06-20 09:40:00,
2013-06-20 05:45:00,58.6,55.9,26.73,SSE,158,0.0,0.0,90,0.00,,,0.00,WUHU216HW,2013-06-20 09:45:00,
2013-06-20 05:50:00,58.8,55.9,26.73,SSE,158,0.0,0.0,90,0.00,,,0.00,WUHU216HW,2013-06-20 09:50:00,
2013-06-20 05:55:00,58.8,55.9,26.73,SSE,158,0.0,0.0,90,0.00,,,0.00,WUHU216HW,2013-06-20 09:55:00,
2013-06-20 06:00:00,58.8,55.9,26.73,SSE,158,0.0,0.0,90,0.00,,,0.00,WUHU216HW,2013-06-20 10:00:00,
2013-06-20 06:05:00,58.8,55.9,26.73,SSE,158,0.0,0.0,90,0.00,,,0.00,WUHU216HW,2013-06-20 10:05:00,
2013-06-20 06:10:00,58.8,55.9,26.73,SSE,158,0.0,0.0,90,0.00,,,0.00,WUHU216HW,2013-06-20 10:10:00,
2013-06-20 06:15:00,58.8,55.9,26.74,SSE,158,0.0,0.0,90,0.00,,,0.00,WUHU216HW,2013-06-20 10:15:00,
2013-06-20 06:20:00,58.8,55.9,26.74,SSE,158,0.0,0.0,90,0.00,,,0.00,WUHU216HW,2013-06-20 10:20:00,
2013-06-20 06:25:00,58.8,55.9,26.74,SSE,158,0.0,0.0,90,0.00,,,0.00,WUHU216HW,2013-06-20 10:25:00,
2013-06-20 06:30:00,58.8,55.9,26.74,SSE,158,0.0,0.0,90,0.00,,,0.00,WUHU216HW,2013-06-20 10:30:00,
2013-06-20 06:35:00,58.8,55.9,26.74,SSE,158,0.0,0.0,90,0.00,,,0.00,WUHU216HW,2013-06-20 10:35:00,
2013-06-20 06:40:00,58.8,55.9,26.74,SSE,158,0.0,0.0,90,0.00,,,0.00,WUHU216HW,2013-06-20 10:40:00,
2013-06-20 06:45:00,58.8,55.9,26.74,SSE,158,0.0,0.0,90,0.00,,,0.00,WUHU216HW,2013-06-20 10:45:00,
2013-06-20 06:50:00,58.8,56.2,26.75,SSE,158,0.0,0.0,91,0.00,,,0.00,WUHU216HW,2013-06-20 10:50:00,
2013-06-20 06:55:00,58.8,55.9,26.75,SSE,158,0.0,0.0,90,0.00,,,0.00,WUHU216HW,2013-06-20 10:55:00,
2013-06-20 07:00:00,58.8,56.2,26.75,SSE,158,0.0,0.0,91,0.00,,,0.00,WUHU216HW,2013-06-20 11:00:00,
2013-06-20 07:05:00,58.8,55.9,26.75,SSE,158,0.0,0.0,90,0.00,,,0.00,WUHU216HW,2013-06-20 11:05:00,
2013-06-20 07:10:00,58.8,56.2,26.75,SSE,158,0.0,0.0,91,0.00,,,0.00,WUHU216HW,2013-06-20 11:10:00,
2013-06-20 07:15:00,58.8,56.2,26.75,SSE,158,0.0,0.0,91,0.00,,,0.00,WUHU216HW,2013-06-20 11:15:00,
2013-06-20 07:20:00,58.8,56.2,26.75,SSE,158,0.0,0.0,91,0.00,,,0.00,WUHU216HW,2013-06-20 11:20:00,
2013-06-20 07:25:00,58.8,56.2,26.75,SSE,158,0.0,0.0,91,0.00,,,0.00,WUHU216HW,2013-06-20 11:25:00,
2013-06-20 07:30:00,58.8,56.2,26.76,SSE,158,0.0,0.0,91,0.00,,,0.00,WUHU216HW,2013-06-20 11:30:00,
2013-06-20 07:35:00,58.8,56.2,26.75,SSE,158,0.0,0.0,91,0.00,,,0.00,WUHU216HW,2013-06-20 11:35:00,
2013-06-20 07:40:00,58.8,56.2,26.75,SSE,158,0.0,0.0,91,0.00,,,0.00,WUHU216HW,2013-06-20 11:40:00,
2013-06-20 07:46:00,58.8,56.2,26.76,SSE,158,0.0,0.0,91,0.00,,,0.00,WUHU216HW,2013-06-20 11:46:00,
2013-06-20 07:51:00,58.8,56.2,26.76,SSE,158,0.0,0.0,91,0.00,,,0.00,WUHU216HW,2013-06-20 11:51:00,
2013-06-20 07:56:00,58.8,56.2,26.76,SSE,158,0.0,0.0,91,0.00,,,0.00,WUHU216HW,2013-06-20 11:56:00,
2013-06-20 08:01:00,59.1,56.5,26.76,SSE,158,0.0,0.0,91,0.00,,,0.00,WUHU216HW,2013-06-20 12:01:00,
2013-06-20 08:06:00,59.3,56.7,26.76,SSE,158,0.0,0.0,91,0.00,,,0.00,WUHU216HW,2013-06-20 12:06:00,
2013-06-20 08:11:00,59.5,56.9,26.76,SSE,158,0.0,0.0,91,0.00,,,0.00,WUHU216HW,2013-06-20 12:11:00,
2013-06-20 08:16:00,59.7,57.1,26.76,SSE,158,0.0,0.0,91,0.00,,,0.00,WUHU216HW,2013-06-20 12:16:00,
2013-06-20 08:21:00,60.0,57.4,26.77,SSE,158,0.0,0.0,91,0.00,,,0.00,WUHU216HW,2013-06-20 12:21:00,
2013-06-20 08:26:00,60.4,57.8,26.77,SSE,158,0.0,0.0,91,0.00,,,0.00,WUHU216HW,2013-06-20 12:26:00,
2013-06-20 08:31:00,60.6,58.0,26.77,SSE,158,0.0,0.0,91,0.00,,,0.00,WUHU216HW,2013-06-20 12:31:00,
2013-06-20 08:36:00,60.9,58.3,26.77,SSE,158,0.0,0.0,91,0.00,,,0.00,WUHU216HW,2013-06-20 12:36:00,
2013-06-20 08:41:00,60.9,58.3,26.77,SSE,158,0.0,0.0,91,0.00,,,0.00,WUHU216HW,2013-06-20 12:41:00,
2013-06-20 08:46:00,61.1,58.5,26.77,SSE,158,0.0,0.0,91,0.00,,,0.00,WUHU216HW,2013-06-20 12:46:00,
2013-06-20 08:51:00,61.5,58.9,26.78,SSE,158,0.0,0.0,91,0.00,,,0.00,WUHU216HW,2013-06-20 12:51:00,
2013-06-20 08:56:00,62.0,59.4,26.77,SSE,158,0.0,0.0,91,0.00,,,0.00,WUHU216HW,2013-06-20 12:56:00,
2013-06-20 09:01:00,62.4,59.8,26.77,SSE,158,0.0,0.0,91,0.00,,,0.00,WUHU216HW,2013-06-20 13:01:00,
2013-06-20 09:06:00,63.1,60.8,26.77,SSE,158,0.0,0.0,92,0.00,,,0.00,WUHU216HW,2013-06-20 13:06:00,
2013-06-20 09:11:00,63.6,61.0,26.78,SSE,158,0.8,0.8,91,0.00,,,0.00,WUHU216HW,2013-06-20 13:11:00,
2013-06-20 09:16:00,63.6,61.0,26.77,SSE,158,0.0,0.8,91,0.00,,,0.00,WUHU216HW,2013-06-20 13:16:00,
2013-06-20 09:21:00,64.2,61.6,26.77,SE,135,1.3,1.3,91,0.00,,,0.00,WUHU216HW,2013-06-20 13:21:00,
2013-06-20 09:26:00,64.5,61.6,26.77,SE,135,2.2,2.2,90,0.00,,,0.00,WUHU216HW,2013-06-20 13:26:00,
2013-06-20 09:31:00,64.9,62.0,26.77,SE,135,2.0,2.2,90,0.00,,,0.00,WUHU216HW,2013-06-20 13:31:00,
2013-06-20 09:36:00,65.3,62.3,26.77,SE,135,1.7,2.2,90,0.00,,,0.00,WUHU216HW,2013-06-20 13:36:00,
2013-06-20 09:41:00,65.8,62.1,26.77,SE,135,3.5,3.5,88,0.00,,,0.00,WUHU216HW,2013-06-20 13:41:00,
2013-06-20 09:46:00,66.0,62.3,26.77,SE,135,1.7,3.5,88,0.00,,,0.00,WUHU216HW,2013-06-20 13:46:00,
2013-06-20 09:51:00,66.5,62.5,26.77,SE,135,2.0,3.5,87,0.00,,,0.00,WUHU216HW,2013-06-20 13:51:00,
2013-06-20 09:56:00,66.9,61.9,26.77,SE,135,1.7,5.3,84,0.00,,,0.00,WUHU216HW,2013-06-20 13:56:00,
2013-06-20 10:01:00,67.2,61.9,26.77,SE,135,2.9,5.3,83,0.00,,,0.00,WUHU216HW,2013-06-20 14:01:00,
2013-06-20 10:06:00,67.6,62.3,26.77,SE,135,0.8,3.8,83,0.00,,,0.00,WUHU216HW,2013-06-20 14:06:00,
2013-06-20 10:11:00,68.3,62.9,26.77,SE,135,2.4,2.9,83,0.00,,,0.00,WUHU216HW,2013-06-20 14:11:00,
2013-06-20 10:16:00,68.7,62.9,26.77,SE,135,2.0,2.9,82,0.00,,,0.00,WUHU216HW,2013-06-20 14:16:00,
2013-06-20 10:21:00,69.2,63.5,26.77,SE,135,0.0,2.4,82,0.00,,,0.00,WUHU216HW,2013-06-20 14:21:00,
2013-06-20 10:26:00,69.9,63.1,26.77,SE,135,0.0,0.6,79,0.00,,,0.00,WUHU216HW,2013-06-20 14:26:00,
2013-06-20 10:31:00,70.3,63.1,26.77,SE,135,3.8,3.8,78,0.00,,,0.00,WUHU216HW,2013-06-20 14:31:00,
2013-06-20 10:36:00,70.5,62.9,26.77,SE,135,0.0,3.8,77,0.00,,,0.00,WUHU216HW,2013-06-20 14:36:00,
2013-06-20 10:41:00,70.8,62.8,26.77,SE,135,1.3,3.8,76,0.00,,,0.00,WUHU216HW,2013-06-20 14:41:00,
2013-06-20 10:46:00,71.4,63.8,26.78,SE,135,0.0,2.2,77,0.00,,,0.00,WUHU216HW,2013-06-20 14:46:00,
2013-06-20 10:51:00,71.7,63.7,26.78,ESE,113,1.1,2.2,76,0.00,,,0.00,WUHU216HW,2013-06-20 14:51:00,
2013-06-20 10:56:00,72.3,63.9,26.78,ESE,113,0.0,2.9,75,0.00,,,0.00,WUHU216HW,2013-06-20 14:56:00,
2013-06-20 11:01:00,72.8,64.4,26.78,SE,135,0.0,2.9,75,0.00,,,0.00,WUHU216HW,2013-06-20 15:01:00,
2013-06-20 11:06:00,72.8,64.4,26.78,SE,135,0.0,0.0,75,0.00,,,0.00,WUHU216HW,2013-06-20 15:06:00,
2013-06-20 11:11:00,73.5,63.3,26.78,SE,135,0.0,0.0,70,0.00,,,0.00,WUHU216HW,2013-06-20 15:11:00,
2013-06-20 11:16:00,73.4,63.1,26.79,SE,135,0.0,0.0,70,0.00,,,0.00,WUHU216HW,2013-06-20 15:16:00,
2013-06-20 11:21:00,73.5,63.3,26.78,SE,135,0.0,0.0,70,0.00,,,0.00,WUHU216HW,2013-06-20 15:21:00,
2013-06-20 11:26:00,74.4,64.8,26.79,SE,135,0.0,0.0,72,0.00,,,0.00,WUHU216HW,2013-06-20 15:26:00,
2013-06-20 11:31:00,75.0,64.9,26.79,SE,135,0.0,0.8,71,0.00,,,0.00,WUHU216HW,2013-06-20 15:31:00,
2013-06-20 11:36:00,75.3,64.4,26.79,SE,135,0.0,0.8,69,0.00,,,0.00,WUHU216HW,2013-06-20 15:36:00,
2013-06-20 11:41:00,75.9,64.5,26.79,SE,135,0.0,0.0,68,0.00,,,0.00,WUHU216HW,2013-06-20 15:41:00,
2013-06-20 11:46:00,76.2,64.5,26.79,ESE,113,2.2,3.5,67,0.00,,,0.00,WUHU216HW,2013-06-20 15:46:00,
2013-06-20 11:51:00,76.6,65.3,26.79,ESE,113,0.0,3.5,68,0.00,,,0.00,WUHU216HW,2013-06-20 15:51:00,
2013-06-20 11:56:00,77.0,66.1,26.79,ESE,113,0.0,0.0,69,0.00,,,0.00,WUHU216HW,2013-06-20 15:56:00,
2013-06-20 12:02:00,77.3,65.5,26.79,SE,135,0.0,1.7,67,0.00,,,0.00,WUHU216HW,2013-06-20 16:02:00,
2013-06-20 12:07:00,77.3,65.0,26.79,SE,135,0.0,1.7,66,0.00,,,0.00,WUHU216HW,2013-06-20 16:07:00,
2013-06-20 12:12:00,77.7,65.8,26.79,SE,135,0.0,1.5,67,0.00,,,0.00,WUHU216HW,2013-06-20 16:12:00,
2013-06-20 12:17:00,78.0,66.2,26.79,ESE,113,0.0,1.5,67,0.00,,,0.00,WUHU216HW,2013-06-20 16:17:00,
2013-06-20 12:22:00,78.6,66.2,26.78,SE,135,0.0,0.0,66,0.00,,,0.00,WUHU216HW,2013-06-20 16:22:00,
2013-06-20 12:27:00,78.4,65.6,26.78,SE,135,0.0,2.0,65,0.00,,,0.00,WUHU216HW,2013-06-20 16:27:00,
2013-06-20 12:32:00,78.0,65.7,26.78,ESE,113,0.0,2.0,66,0.00,,,0.00,WUHU216HW,2013-06-20 16:32:00,
2013-06-20 12:37:00,78.0,65.3,26.78,ESE,113,0.0,0.0,66,0.00,,,0.00,WUHU216HW,2013-06-20 16:37:00,
2013-06-20 12:42:00,78.2,65.4,26.78,SE,135,0.0,0.0,65,0.00,,,0.00,WUHU216HW,2013-06-20 16:42:00,
2013-06-20 12:47:00,78.4,65.6,26.78,SE,135,0.0,1.7,65,0.00,,,0.00,WUHU216HW,2013-06-20 16:47:00,
2013-06-20 12:52:00,78.6,65.8,26.78,SSE,158,2.6,2.6,65,0.00,,,0.00,WUHU216HW,2013-06-20 16:52:00,
2013-06-20 12:57:00,78.6,64.9,26.77,SE,135,4.4,4.4,63,0.00,,,0.00,WUHU216HW,2013-06-20 16:57:00,
2013-06-20 13:02:00,78.9,65.3,26.78,SSE,158,0.0,4.4,63,0.00,,,0.00,WUHU216HW,2013-06-20 17:02:00,
2013-06-20 13:07:00,79.5,66.2,26.78,SSE,158,0.0,3.1,64,0.00,,,0.00,WUHU216HW,2013-06-20 17:07:00,
2013-06-20 13:12:00,79.5,65.8,26.78,SSE,158,5.1,5.1,63,0.00,,,0.00,WUHU216HW,2013-06-20 17:12:00,
2013-06-20 13:17:00,79.3,65.6,26.77,SSE,158,0.0,5.1,63,0.00,,,0.00,WUHU216HW,2013-06-20 17:17:00,
2013-06-20 13:22:00,79.5,66.2,26.78,SSE,158,0.0,1.1,64,0.00,,,0.00,WUHU216HW,2013-06-20 17:22:00,
2013-06-20 13:27:00,79.7,66.4,26.77,SE,135,1.3,3.8,64,0.00,,,0.00,WUHU216HW,2013-06-20 17:27:00,
2013-06-20 13:32:00,79.7,65.5,26.77,SSE,158,0.0,3.8,62,0.00,,,0.00,WUHU216HW,2013-06-20 17:32:00,
2013-06-20 13:37:00,79.3,65.6,26.77,SSE,158,0.0,2.4,63,0.00,,,0.00,WUHU216HW,2013-06-20 17:37:00,
2013-06-20 13:42:00,79.1,65.0,26.77,SSE,158,3.1,3.8,62,0.00,,,0.00,WUHU216HW,2013-06-20 17:42:00,
2013-06-20 13:47:00,78.9,65.3,26.77,SSE,158,3.3,4.0,63,0.00,,,0.00,WUHU216HW,2013-06-20 17:47:00,
2013-06-20 13:52:00,79.1,65.0,26.77,SSE,158,6.7,6.7,62,0.00,,,0.00,WUHU216HW,2013-06-20 17:52:00,
2013-06-20 13:57:00,78.9,64.8,26.77,SSE,158,4.2,6.7,62,0.00,,,0.00,WUHU216HW,2013-06-20 17:57:00,
2013-06-20 14:02:00,78.6,64.1,26.77,SSE,158,5.1,6.7,61,0.00,,,0.00,WUHU216HW,2013-06-20 18:02:00,
2013-06-20 14:07:00,78.2,63.7,26.77,SSE,158,4.9,5.8,61,0.00,,,0.00,WUHU216HW,2013-06-20 18:07:00,
2013-06-20 14:12:00,77.5,63.4,26.77,SSE,158,2.4,5.1,62,0.00,,,0.00,WUHU216HW,2013-06-20 18:12:00,
2013-06-20 14:17:00,76.8,63.2,26.77,SSE,158,0.0,4.9,63,0.00,,,0.00,WUHU216HW,2013-06-20 18:17:00,
2013-06-20 14:22:00,76.4,62.9,26.77,SSE,158,5.1,5.1,63,0.00,,,0.00,WUHU216HW,2013-06-20 18:22:00,
2013-06-20 14:27:00,75.9,62.4,26.77,SSE,158,2.4,5.1,63,0.00,,,0.00,WUHU216HW,2013-06-20 18:27:00,
2013-06-20 14:32:00,75.3,62.3,26.77,SSE,158,2.2,5.1,64,0.00,,,0.00,WUHU216HW,2013-06-20 18:32:00,
2013-06-20 14:37:00,75.3,62.7,26.77,SE,135,2.9,2.9,65,0.00,,,0.00,WUHU216HW,2013-06-20 18:37:00,
2013-06-20 14:42:00,75.3,62.7,26.77,SSE,158,3.1,3.8,65,0.00,,,0.00,WUHU216HW,2013-06-20 18:42:00,
2013-06-20 14:47:00,75.3,62.7,26.77,SSE,158,3.5,3.8,65,0.00,,,0.00,WUHU216HW,2013-06-20 18:47:00,
2013-06-20 14:52:00,75.3,62.7,26.77,SSE,158,3.5,3.5,65,0.00,,,0.00,WUHU216HW,2013-06-20 18:52:00,
2013-06-20 14:57:00,75.3,63.1,26.77,SSE,158,1.7,3.5,66,0.00,,,0.00,WUHU216HW,2013-06-20 18:57:00,
2013-06-20 15:02:00,75.0,62.4,26.77,SSE,158,2.2,5.3,65,0.00,,,0.00,WUHU216HW,2013-06-20 19:02:00,
2013-06-20 15:07:00,74.8,62.6,26.77,SE,135,0.0,5.3,66,0.00,,,0.00,WUHU216HW,2013-06-20 19:07:00,
2013-06-20 15:12:00,74.6,62.5,26.77,SSE,158,5.3,5.3,66,0.00,,,0.00,WUHU216HW,2013-06-20 19:12:00,
2013-06-20 15:17:00,74.1,61.5,26.77,SSE,158,5.5,5.5,65,0.00,,,0.00,WUHU216HW,2013-06-20 19:17:00,
2013-06-20 15:22:00,73.9,61.8,26.77,SSE,158,5.1,5.5,66,0.00,,,0.00,WUHU216HW,2013-06-20 19:22:00,
2013-06-20 15:27:00,73.5,61.5,26.77,SSE,158,0.0,5.5,66,0.00,,,0.00,WUHU216HW,2013-06-20 19:27:00,
2013-06-20 15:32:00,73.2,61.6,26.76,SSE,158,4.0,5.1,67,0.00,,,0.00,WUHU216HW,2013-06-20 19:32:00,
2013-06-20 15:37:00,73.0,61.4,26.77,SSE,158,2.2,4.2,67,0.00,,,0.00,WUHU216HW,2013-06-20 19:37:00,
2013-06-20 15:42:00,72.5,60.9,26.76,SSE,158,2.0,4.0,67,0.00,,,0.00,WUHU216HW,2013-06-20 19:42:00,
2013-06-20 15:47:00,72.3,60.7,26.76,SSE,158,4.2,4.2,67,0.00,,,0.00,WUHU216HW,2013-06-20 19:47:00,
2013-06-20 15:52:00,72.1,60.5,26.76,SSE,158,4.2,4.2,67,0.00,,,0.00,WUHU216HW,2013-06-20 19:52:00,
2013-06-20 15:57:00,71.7,60.6,26.76,SSE,158,2.6,4.2,68,0.00,,,0.00,WUHU216HW,2013-06-20 19:57:00,
2013-06-20 16:02:00,71.4,60.2,26.76,SSE,158,4.0,4.2,68,0.00,,,0.00,WUHU216HW,2013-06-20 20:02:00,
2013-06-20 16:07:00,71.2,60.5,26.76,SSE,158,6.2,6.2,69,0.00,,,0.00,WUHU216HW,2013-06-20 20:07:00,
2013-06-20 16:12:00,71.2,60.5,26.76,SSE,158,5.3,6.2,69,0.00,,,0.00,WUHU216HW,2013-06-20 20:12:00,
2013-06-20 16:18:00,71.4,61.1,26.76,SSE,158,4.2,6.2,70,0.00,,,0.00,WUHU216HW,2013-06-20 20:18:00,
2013-06-20 16:23:00,71.2,60.9,26.76,SSE,158,3.8,5.1,70,0.00,,,0.00,WUHU216HW,2013-06-20 20:23:00,
2013-06-20 16:28:00,71.2,60.9,26.76,SSE,158,0.8,5.1,70,0.00,,,0.00,WUHU216HW,2013-06-20 20:28:00,
2013-06-20 16:33:00,71.4,61.1,26.76,SSE,158,5.3,5.3,70,0.00,,,0.00,WUHU216HW,2013-06-20 20:33:00,
2013-06-20 16:38:00,71.4,61.1,26.76,SSE,158,3.1,5.3,70,0.00,,,0.00,WUHU216HW,2013-06-20 20:38:00,
2013-06-20 16:43:00,71.6,61.3,26.76,SSE,158,5.8,5.8,70,0.00,,,0.00,WUHU216HW,2013-06-20 20:43:00,
2013-06-20 16:48:00,71.4,61.1,26.76,SSE,158,1.5,5.8,70,0.00,,,0.00,WUHU216HW,2013-06-20 20:48:00,
2013-06-20 16:53:00,71.4,61.1,26.76,SSE,158,4.9,4.9,70,0.00,,,0.00,WUHU216HW,2013-06-20 20:53:00,
2013-06-20 16:58:00,71.2,60.9,26.76,SSE,158,4.0,6.2,70,0.00,,,0.00,WUHU216HW,2013-06-20 20:58:00,
2013-06-20 17:03:00,71.2,60.9,26.76,SSE,158,4.0,6.2,70,0.00,,,0.00,WUHU216HW,2013-06-20 21:03:00,
2013-06-20 17:08:00,71.2,60.9,26.76,SSE,158,3.8,6.2,70,0.00,,,0.00,WUHU216HW,2013-06-20 21:08:00,
2013-06-20 17:13:00,70.8,60.9,26.76,SSE,158,3.3,4.0,71,0.00,,,0.00,WUHU216HW,2013-06-20 21:13:00,
2013-06-20 17:18:00,70.8,60.9,26.75,SSE,158,5.3,5.3,71,0.00,,,0.00,WUHU216HW,2013-06-20 21:18:00,
2013-06-20 17:23:00,70.8,60.9,26.75,SSE,158,4.0,6.4,71,0.00,,,0.00,WUHU216HW,2013-06-20 21:23:00,
2013-06-20 17:28:00,70.8,60.9,26.75,SSE,158,4.0,6.4,71,0.00,,,0.00,WUHU216HW,2013-06-20 21:28:00,
2013-06-20 17:33:00,70.8,60.9,26.75,SSE,158,0.0,6.0,71,0.00,,,0.00,WUHU216HW,2013-06-20 21:33:00,
2013-06-20 17:38:00,70.7,60.8,26.75,SSE,158,0.0,4.6,71,0.00,,,0.00,WUHU216HW,2013-06-20 21:38:00,
2013-06-20 17:43:00,70.8,60.9,26.75,SSE,158,4.9,4.9,71,0.00,,,0.00,WUHU216HW,2013-06-20 21:43:00,
2013-06-20 17:48:00,71.2,61.3,26.75,SSE,158,4.2,4.9,71,0.00,,,0.00,WUHU216HW,2013-06-20 21:48:00,
2013-06-20 17:53:00,71.2,61.3,26.75,SSE,158,5.3,5.3,71,0.00,,,0.00,WUHU216HW,2013-06-20 21:53:00,
2013-06-20 17:58:00,71.2,61.3,26.75,SSE,158,4.4,5.3,71,0.00,,,0.00,WUHU216HW,2013-06-20 21:58:00,
2013-06-20 18:03:00,71.2,61.3,26.75,SSE,158,3.5,5.3,71,0.00,,,0.00,WUHU216HW,2013-06-20 22:03:00,
2013-06-20 18:08:00,70.8,60.9,26.75,SSE,158,5.1,5.5,71,0.00,,,0.00,WUHU216HW,2013-06-20 22:08:00,
2013-06-20 18:13:00,70.7,60.8,26.75,SSE,158,0.0,5.5,71,0.00,,,0.00,WUHU216HW,2013-06-20 22:13:00,
2013-06-20 18:18:00,70.7,60.8,26.75,SSE,158,2.9,5.1,71,0.00,,,0.00,WUHU216HW,2013-06-20 22:18:00,
2013-06-20 18:23:00,70.7,60.8,26.75,SSE,158,4.4,5.5,71,0.00,,,0.00,WUHU216HW,2013-06-20 22:23:00,
2013-06-20 18:28:00,70.5,60.6,26.75,SSE,158,5.5,5.5,71,0.00,,,0.00,WUHU216HW,2013-06-20 22:28:00,
2013-06-20 18:33:00,70.5,60.6,26.75,SSE,158,0.0,5.5,71,0.00,,,0.00,WUHU216HW,2013-06-20 22:33:00,
2013-06-20 18:38:00,70.5,60.6,26.76,South,180,1.1,5.5,71,0.00,,,0.00,WUHU216HW,2013-06-20 22:38:00,
2013-06-20 18:43:00,70.3,60.4,26.75,SSE,158,3.8,3.8,71,0.00,,,0.00,WUHU216HW,2013-06-20 22:43:00,
2013-06-20 18:48:00,70.3,60.4,26.76,SSE,158,2.6,4.0,71,0.00,,,0.00,WUHU216HW,2013-06-20 22:48:00,
2013-06-20 18:53:00,69.9,60.0,26.76,SSE,158,4.4,4.4,71,0.00,,,0.00,WUHU216HW,2013-06-20 22:53:00,
2013-06-20 18:58:00,69.8,60.2,26.76,SSE,158,6.2,6.2,72,0.00,,,0.00,WUHU216HW,2013-06-20 22:58:00,
2013-06-20 19:03:00,69.8,60.2,26.76,SSE,158,6.2,6.2,72,0.00,,,0.00,WUHU216HW,2013-06-20 23:03:00,
2013-06-20 19:08:00,69.8,60.2,26.76,SSE,158,6.2,6.2,72,0.00,,,0.00,WUHU216HW,2013-06-20 23:08:00,
2013-06-20 19:13:00,69.8,60.2,26.76,SSE,158,6.2,6.2,72,0.00,,,0.00,WUHU216HW,2013-06-20 23:13:00,
2013-06-20 20:01:00,67.6,59.4,26.76,SSE,158,2.4,3.8,75,0.00,,,0.00,WUHU216HW,2013-06-21 00:01:00,
2013-06-20 20:06:00,67.2,59.0,26.76,SSE,158,2.2,3.8,75,0.00,,,0.00,WUHU216HW,2013-06-21 00:06:00,
2013-06-20 20:11:00,67.1,59.2,26.76,SSE,158,0.8,2.2,76,0.00,,,0.00,WUHU216HW,2013-06-21 00:11:00,
2013-06-20 20:16:00,67.1,59.2,26.77,SSE,158,2.9,3.8,76,0.00,,,0.00,WUHU216HW,2013-06-21 00:16:00,
2013-06-20 20:21:00,66.7,58.9,26.76,SSE,158,3.3,4.4,76,0.00,,,0.00,WUHU216HW,2013-06-21 00:21:00,
2013-06-20 20:26:00,66.7,59.3,26.76,SSE,158,3.8,4.4,77,0.00,,,0.00,WUHU216HW,2013-06-21 00:26:00,
2013-06-20 20:31:00,66.5,59.1,26.77,SSE,158,2.9,4.0,77,0.00,,,0.00,WUHU216HW,2013-06-21 00:31:00,
2013-06-20 20:36:00,66.3,58.9,26.77,SSE,158,3.5,4.2,77,0.00,,,0.00,WUHU216HW,2013-06-21 00:36:00,
2013-06-20 20:41:00,66.2,58.7,26.77,SSE,158,2.6,4.2,77,0.00,,,0.00,WUHU216HW,2013-06-21 00:41:00,
2013-06-20 20:46:00,66.0,58.9,26.76,SSE,158,2.9,3.5,78,0.00,,,0.00,WUHU216HW,2013-06-21 00:46:00,
2013-06-20 20:51:00,66.0,58.9,26.76,SSE,158,2.6,2.9,78,0.00,,,0.00,WUHU216HW,2013-06-21 00:51:00,
2013-06-20 20:56:00,65.8,58.7,26.77,SSE,158,3.1,3.1,78,0.00,,,0.00,WUHU216HW,2013-06-21 00:56:00,
2013-06-20 21:01:00,65.6,58.9,26.77,SSE,158,0.0,3.1,79,0.00,,,0.00,WUHU216HW,2013-06-21 01:01:00,
2013-06-20 21:06:00,65.4,58.8,26.77,SSE,158,0.0,3.1,79,0.00,,,0.00,WUHU216HW,2013-06-21 01:06:00,
2013-06-20 21:11:00,65.4,58.8,26.77,SSE,158,2.9,2.9,79,0.00,,,0.00,WUHU216HW,2013-06-21 01:11:00,
2013-06-20 21:16:00,65.4,58.8,26.77,SSE,158,1.7,2.9,79,0.00,,,0.00,WUHU216HW,2013-06-21 01:16:00,
2013-06-20 21:21:00,65.4,58.8,26.77,SSE,158,1.7,2.9,79,0.00,,,0.00,WUHU216HW,2013-06-21 01:21:00,
2013-06-20 21:26:00,65.3,59.0,26.78,SSE,158,0.0,1.7,80,0.00,,,0.00,WUHU216HW,2013-06-21 01:26:00,
2013-06-20 21:31:00,65.3,59.0,26.78,SSE,158,0.0,1.7,80,0.00,,,0.00,WUHU216HW,2013-06-21 01:31:00,
2013-06-20 21:36:00,65.3,59.0,26.79,SSE,158,0.0,0.0,80,0.00,,,0.00,WUHU216HW,2013-06-21 01:36:00,
2013-06-20 21:41:00,65.1,58.8,26.78,SSE,158,0.0,0.0,80,0.00,,,0.00,WUHU216HW,2013-06-21 01:41:00,
2013-06-20 21:46:00,65.1,58.8,26.79,SSE,158,0.0,0.0,80,0.00,,,0.00,WUHU216HW,2013-06-21 01:46:00,
2013-06-20 21:51:00,65.1,59.1,26.79,SSE,158,0.0,0.0,81,0.00,,,0.00,WUHU216HW,2013-06-21 01:51:00,
2013-06-20 21:56:00,65.1,59.1,26.79,SSE,158,0.0,0.0,81,0.00,,,0.00,WUHU216HW,2013-06-21 01:56:00,
2013-06-20 22:01:00,65.1,59.1,26.79,SSE,158,0.0,0.0,81,0.00,,,0.00,WUHU216HW,2013-06-21 02:01:00,
2013-06-20 22:06:00,64.9,58.9,26.79,SSE,158,0.0,0.0,81,0.00,,,0.00,WUHU216HW,2013-06-21 02:06:00,
2013-06-20 22:11:00,64.9,58.9,26.79,SSE,158,0.0,0.0,81,0.00,,,0.00,WUHU216HW,2013-06-21 02:11:00,
2013-06-20 22:16:00,64.9,58.9,26.79,SSE,158,0.0,0.0,81,0.00,,,0.00,WUHU216HW,2013-06-21 02:16:00,
2013-06-20 22:21:00,64.7,58.7,26.80,SSE,158,0.0,0.0,81,0.00,,,0.00,WUHU216HW,2013-06-21 02:21:00,
2013-06-20 22:26:00,64.7,58.7,26.80,SSE,158,0.0,0.0,81,0.00,,,0.00,WUHU216HW,2013-06-21 02:26:00,
2013-06-20 22:31:00,64.5,58.9,26.80,SSE,158,0.0,0.0,82,0.00,,,0.00,WUHU216HW,2013-06-21 02:31:00,
2013-06-20 22:37:00,64.5,58.9,26.80,SSE,158,0.0,0.0,82,0.00,,,0.00,WUHU216HW,2013-06-21 02:37:00,
2013-06-20 22:42:00,64.2,58.6,26.80,SSE,158,0.0,0.0,82,0.00,,,0.00,WUHU216HW,2013-06-21 02:42:00,
2013-06-20 22:47:00,64.2,58.9,26.80,SSE,158,0.0,0.0,83,0.00,,,0.00,WUHU216HW,2013-06-21 02:47:00,
2013-06-20 22:52:00,64.2,58.9,26.80,SSE,158,0.0,0.0,83,0.00,,,0.00,WUHU216HW,2013-06-21 02:52:00,
2013-06-20 22:57:00,64.0,58.7,26.80,SSE,158,0.0,0.0,83,0.00,,,0.00,WUHU216HW,2013-06-21 02:57:00,
2013-06-20 23:02:00,64.0,58.7,26.80,SSE,158,0.0,0.0,83,0.00,,,0.00,WUHU216HW,2013-06-21 03:02:00,
2013-06-20 23:07:00,63.6,58.4,26.80,SSE,158,0.0,0.0,83,0.00,,,0.00,WUHU216HW,2013-06-21 03:07:00,
2013-06-20 23:12:00,63.6,58.4,26.80,SSE,158,0.0,0.0,83,0.00,,,0.00,WUHU216HW,2013-06-21 03:12:00,
2013-06-20 23:17:00,63.5,58.2,26.80,SSE,158,0.0,0.0,83,0.00,,,0.00,WUHU216HW,2013-06-21 03:17:00,
2013-06-20 23:22:00,63.3,58.0,26.79,SSE,158,0.0,0.0,83,0.00,,,0.00,WUHU216HW,2013-06-21 03:22:00,
2013-06-20 23:27:00,63.3,58.3,26.79,SSE,158,0.0,0.0,84,0.00,,,0.00,WUHU216HW,2013-06-21 03:27:00,
2013-06-20 23:32:00,63.1,58.2,26.79,SSE,158,0.0,0.0,84,0.00,,,0.00,WUHU216HW,2013-06-21 03:32:00,
2013-06-20 23:37:00,63.1,58.2,26.79,SSE,158,0.0,0.0,84,0.00,,,0.00,WUHU216HW,2013-06-21 03:37:00,
2013-06-20 23:42:00,63.1,58.2,26.79,SSE,158,0.0,0.0,84,0.00,,,0.00,WUHU216HW,2013-06-21 03:42:00,
2013-06-20 23:47:00,62.9,58.0,26.79,SSE,158,0.0,0.0,84,0.00,,,0.00,WUHU216HW,2013-06-21 03:47:00,
2013-06-20 23:52:00,62.7,57.8,26.80,SSE,158,0.0,0.0,84,0.00,,,0.00,WUHU216HW,2013-06-21 03:52:00,
2013-06-20 23:57:00,62.7,57.8,26.79,SSE,158,0.0,0.0,84,0.00,,,0.00,WUHU216HW,2013-06-21 03:57:00,